sensor_id;sensor_type;location;lat;lon;timestamp;temperature;humidity
23471;DHT22;11908;50.806;4.424;2023-03-20T00:01:29;7.10;99.90
23471;DHT22;11908;50.806;4.424;2023-03-20T00:03:56;7.10;99.90
23471;DHT22;11908;50.806;4.424;2023-03-20T00:06:24;7.20;99.90
23471;DHT22;11908;50.806;4.424;2023-03-20T00:08:52;7.10;99.90
23471;DHT22;11908;50.806;4.424;2023-03-20T00:11:40;7.10;99.90
23471;DHT22;11908;50.806;4.424;2023-03-20T00:14:13;7.00;99.90
23471;DHT22;11908;50.806;4.424;2023-03-20T00:16:45;6.90;99.90
23471;DHT22;11908;50.806;4.424;2023-03-20T00:19:20;6.90;99.90
23471;DHT22;11908;50.806;4.424;2023-03-20T00:21:47;6.80;99.90
23471;DHT22;11908;50.806;4.424;2023-03-20T00:24:14;6.80;99.90
23471;DHT22;11908;50.806;4.424;2023-03-20T00:26:42;6.80;99.90
23471;DHT22;11908;50.806;4.424;2023-03-20T00:29:25;6.80;99.90
23471;DHT22;11908;50.806;4.424;2023-03-20T00:31:53;6.70;99.90
23471;DHT22;11908;50.806;4.424;2023-03-20T00:34:21;6.60;99.90
23471;DHT22;11908;50.806;4.424;2023-03-20T00:36:48;6.60;99.90
23471;DHT22;11908;50.806;4.424;2023-03-20T00:39:14;6.60;99.90
23471;DHT22;11908;50.806;4.424;2023-03-20T00:41:48;6.50;99.90
23471;DHT22;11908;50.806;4.424;2023-03-20T00:44:27;6.50;99.90
23471;DHT22;11908;50.806;4.424;2023-03-20T00:46:56;6.50;99.90
23471;DHT22;11908;50.806;4.424;2023-03-20T00:49:34;6.70;99.90
23471;DHT22;11908;50.806;4.424;2023-03-20T00:52:02;6.80;99.90
23471;DHT22;11908;50.806;4.424;2023-03-20T00:54:28;6.80;99.90
23471;DHT22;11908;50.806;4.424;2023-03-20T00:57:10;7.00;99.90
23471;DHT22;11908;50.806;4.424;2023-03-20T00:59:58;7.10;99.90
23471;DHT22;11908;50.806;4.424;2023-03-20T01:02:27;7.20;99.90
23471;DHT22;11908;50.806;4.424;2023-03-20T01:04:54;7.30;99.90
23471;DHT22;11908;50.806;4.424;2023-03-20T01:07:21;7.30;99.90
23471;DHT22;11908;50.806;4.424;2023-03-20T01:09:46;7.40;99.90
23471;DHT22;11908;50.806;4.424;2023-03-20T01:12:13;7.50;99.90
23471;DHT22;11908;50.806;4.424;2023-03-20T01:14:40;7.50;99.90
23471;DHT22;11908;50.806;4.424;2023-03-20T01:17:16;7.50;99.90
23471;DHT22;11908;50.806;4.424;2023-03-20T01:19:41;7.40;99.90
23471;DHT22;11908;50.806;4.424;2023-03-20T01:22:07;7.40;99.90
23471;DHT22;11908;50.806;4.424;2023-03-20T01:24:33;7.50;99.90
23471;DHT22;11908;50.806;4.424;2023-03-20T01:26:59;7.50;99.90
23471;DHT22;11908;50.806;4.424;2023-03-20T01:29:28;7.50;99.90
23471;DHT22;11908;50.806;4.424;2023-03-20T01:31:54;7.50;99.90
23471;DHT22;11908;50.806;4.424;2023-03-20T01:34:21;7.40;99.90
23471;DHT22;11908;50.806;4.424;2023-03-20T01:36:56;7.50;99.90
23471;DHT22;11908;50.806;4.424;2023-03-20T01:39:33;7.50;99.90
23471;DHT22;11908;50.806;4.424;2023-03-20T01:41:59;7.50;99.90
23471;DHT22;11908;50.806;4.424;2023-03-20T01:44:31;7.50;99.90
23471;DHT22;11908;50.806;4.424;2023-03-20T01:46:59;7.30;99.90
23471;DHT22;11908;50.806;4.424;2023-03-20T01:51:53;7.30;99.90
23471;DHT22;11908;50.806;4.424;2023-03-20T01:54:22;7.40;99.90
23471;DHT22;11908;50.806;4.424;2023-03-20T01:57:11;7.50;99.90
23471;DHT22;11908;50.806;4.424;2023-03-20T01:59:53;7.50;99.90
23471;DHT22;11908;50.806;4.424;2023-03-20T02:02:27;7.50;99.90
23471;DHT22;11908;50.806;4.424;2023-03-20T02:04:57;7.40;99.90
23471;DHT22;11908;50.806;4.424;2023-03-20T02:07:25;7.50;99.90
23471;DHT22;11908;50.806;4.424;2023-03-20T02:09:51;7.50;99.90
23471;DHT22;11908;50.806;4.424;2023-03-20T02:12:17;7.50;99.90
23471;DHT22;11908;50.806;4.424;2023-03-20T02:14:45;7.50;99.90
23471;DHT22;11908;50.806;4.424;2023-03-20T02:17:11;7.50;99.90
23471;DHT22;11908;50.806;4.424;2023-03-20T02:36:05;7.60;99.90
23471;DHT22;11908;50.806;4.424;2023-03-20T02:38:45;7.60;99.90
23471;DHT22;11908;50.806;4.424;2023-03-20T02:41:22;7.50;99.90
23471;DHT22;11908;50.806;4.424;2023-03-20T02:49:29;7.50;99.90
23471;DHT22;11908;50.806;4.424;2023-03-20T02:52:12;7.60;99.90
23471;DHT22;11908;50.806;4.424;2023-03-20T02:59:50;7.70;99.90
23471;DHT22;11908;50.806;4.424;2023-03-20T03:02:36;7.60;99.90
23471;DHT22;11908;50.806;4.424;2023-03-20T03:05:09;7.60;99.90
23471;DHT22;11908;50.806;4.424;2023-03-20T03:07:36;7.60;99.90
23471;DHT22;11908;50.806;4.424;2023-03-20T03:10:14;7.70;99.90
23471;DHT22;11908;50.806;4.424;2023-03-20T03:12:43;7.50;99.90
23471;DHT22;11908;50.806;4.424;2023-03-20T03:15:22;7.50;99.90
23471;DHT22;11908;50.806;4.424;2023-03-20T03:17:50;7.50;99.90
23471;DHT22;11908;50.806;4.424;2023-03-20T03:20:29;7.50;99.90
23471;DHT22;11908;50.806;4.424;2023-03-20T03:22:57;7.40;99.90
23471;DHT22;11908;50.806;4.424;2023-03-20T03:25:26;7.40;99.90
23471;DHT22;11908;50.806;4.424;2023-03-20T03:31:11;7.40;99.90
23471;DHT22;11908;50.806;4.424;2023-03-20T03:33:40;7.50;99.90
23471;DHT22;11908;50.806;4.424;2023-03-20T03:36:24;7.40;99.90
23471;DHT22;11908;50.806;4.424;2023-03-20T03:41:51;7.40;99.90
23471;DHT22;11908;50.806;4.424;2023-03-20T03:47:23;7.40;99.90
23471;DHT22;11908;50.806;4.424;2023-03-20T03:50:01;7.30;99.90
23471;DHT22;11908;50.806;4.424;2023-03-20T03:52:28;7.40;99.90
23471;DHT22;11908;50.806;4.424;2023-03-20T03:55:09;7.30;99.90
23471;DHT22;11908;50.806;4.424;2023-03-20T03:57:40;7.30;99.90
23471;DHT22;11908;50.806;4.424;2023-03-20T04:00:13;7.30;99.90
23471;DHT22;11908;50.806;4.424;2023-03-20T04:02:42;7.30;99.90
23471;DHT22;11908;50.806;4.424;2023-03-20T04:05:10;7.30;99.90
23471;DHT22;11908;50.806;4.424;2023-03-20T04:07:38;7.30;99.90
23471;DHT22;11908;50.806;4.424;2023-03-20T04:10:04;7.10;99.90
23471;DHT22;11908;50.806;4.424;2023-03-20T04:12:36;7.10;99.90
23471;DHT22;11908;50.806;4.424;2023-03-20T04:15:03;7.20;99.90
23471;DHT22;11908;50.806;4.424;2023-03-20T04:17:29;7.10;99.90
23471;DHT22;11908;50.806;4.424;2023-03-20T04:19:55;7.20;99.90
23471;DHT22;11908;50.806;4.424;2023-03-20T04:22:21;7.20;99.90
23471;DHT22;11908;50.806;4.424;2023-03-20T04:24:47;7.20;99.90
23471;DHT22;11908;50.806;4.424;2023-03-20T04:27:13;7.10;99.90
23471;DHT22;11908;50.806;4.424;2023-03-20T04:29:39;7.10;99.90
23471;DHT22;11908;50.806;4.424;2023-03-20T04:32:05;7.10;99.90
23471;DHT22;11908;50.806;4.424;2023-03-20T04:34:31;7.10;99.90
23471;DHT22;11908;50.806;4.424;2023-03-20T04:36:57;7.10;99.90
23471;DHT22;11908;50.806;4.424;2023-03-20T04:39:25;7.10;99.90
23471;DHT22;11908;50.806;4.424;2023-03-20T04:41:51;7.10;99.90
23471;DHT22;11908;50.806;4.424;2023-03-20T04:44:17;7.10;99.90
23471;DHT22;11908;50.806;4.424;2023-03-20T04:46:42;7.10;99.90
23471;DHT22;11908;50.806;4.424;2023-03-20T04:49:08;7.10;99.90
23471;DHT22;11908;50.806;4.424;2023-03-20T04:51:34;7.10;99.90
23471;DHT22;11908;50.806;4.424;2023-03-20T04:53:59;7.10;99.90
23471;DHT22;11908;50.806;4.424;2023-03-20T04:56:25;7.10;99.90
23471;DHT22;11908;50.806;4.424;2023-03-20T04:58:51;7.10;99.90
23471;DHT22;11908;50.806;4.424;2023-03-20T05:01:17;7.20;99.90
23471;DHT22;11908;50.806;4.424;2023-03-20T05:03:42;7.20;99.90
23471;DHT22;11908;50.806;4.424;2023-03-20T05:06:08;7.20;99.90
23471;DHT22;11908;50.806;4.424;2023-03-20T05:08:34;7.20;99.90
23471;DHT22;11908;50.806;4.424;2023-03-20T05:11:01;7.10;99.90
23471;DHT22;11908;50.806;4.424;2023-03-20T05:13:29;7.20;99.90
23471;DHT22;11908;50.806;4.424;2023-03-20T05:15:55;7.20;99.90
23471;DHT22;11908;50.806;4.424;2023-03-20T05:18:21;7.10;99.90
23471;DHT22;11908;50.806;4.424;2023-03-20T05:20:48;7.20;99.90
23471;DHT22;11908;50.806;4.424;2023-03-20T05:23:13;7.20;99.90
23471;DHT22;11908;50.806;4.424;2023-03-20T05:25:39;7.30;99.90
23471;DHT22;11908;50.806;4.424;2023-03-20T05:28:05;7.40;99.90
23471;DHT22;11908;50.806;4.424;2023-03-20T05:30:31;7.30;99.90
23471;DHT22;11908;50.806;4.424;2023-03-20T05:32:57;7.40;99.90
23471;DHT22;11908;50.806;4.424;2023-03-20T05:35:25;7.50;99.90
23471;DHT22;11908;50.806;4.424;2023-03-20T05:37:51;7.50;99.90
23471;DHT22;11908;50.806;4.424;2023-03-20T05:40:17;7.50;99.90
23471;DHT22;11908;50.806;4.424;2023-03-20T05:42:44;7.40;99.90
23471;DHT22;11908;50.806;4.424;2023-03-20T05:45:10;7.40;99.90
23471;DHT22;11908;50.806;4.424;2023-03-20T05:47:36;7.50;99.90
23471;DHT22;11908;50.806;4.424;2023-03-20T05:50:02;7.50;99.90
23471;DHT22;11908;50.806;4.424;2023-03-20T05:52:28;7.40;99.90
23471;DHT22;11908;50.806;4.424;2023-03-20T05:54:54;7.40;99.90
23471;DHT22;11908;50.806;4.424;2023-03-20T05:57:20;7.40;99.90
23471;DHT22;11908;50.806;4.424;2023-03-20T05:59:46;7.40;99.90
23471;DHT22;11908;50.806;4.424;2023-03-20T06:02:12;7.40;99.90
23471;DHT22;11908;50.806;4.424;2023-03-20T06:04:37;7.40;99.90
23471;DHT22;11908;50.806;4.424;2023-03-20T06:07:04;7.30;99.90
23471;DHT22;11908;50.806;4.424;2023-03-20T06:09:30;7.40;99.90
23471;DHT22;11908;50.806;4.424;2023-03-20T06:11:57;7.30;99.90
23471;DHT22;11908;50.806;4.424;2023-03-20T06:14:23;7.40;99.90
23471;DHT22;11908;50.806;4.424;2023-03-20T06:16:49;7.40;99.90
23471;DHT22;11908;50.806;4.424;2023-03-20T06:19:14;7.40;99.90
23471;DHT22;11908;50.806;4.424;2023-03-20T06:21:40;7.40;99.90
23471;DHT22;11908;50.806;4.424;2023-03-20T06:24:06;7.40;99.90
23471;DHT22;11908;50.806;4.424;2023-03-20T06:26:31;7.60;99.90
23471;DHT22;11908;50.806;4.424;2023-03-20T06:28:57;7.60;99.90
23471;DHT22;11908;50.806;4.424;2023-03-20T06:31:23;7.70;99.90
23471;DHT22;11908;50.806;4.424;2023-03-20T06:33:48;7.70;99.90
23471;DHT22;11908;50.806;4.424;2023-03-20T06:36:15;7.70;99.90
23471;DHT22;11908;50.806;4.424;2023-03-20T06:38:40;7.70;99.90
23471;DHT22;11908;50.806;4.424;2023-03-20T06:41:06;7.80;99.90
23471;DHT22;11908;50.806;4.424;2023-03-20T06:43:32;7.80;99.90
23471;DHT22;11908;50.806;4.424;2023-03-20T06:45:57;7.80;99.90
23471;DHT22;11908;50.806;4.424;2023-03-20T06:48:23;7.80;99.90
23471;DHT22;11908;50.806;4.424;2023-03-20T06:50:50;7.70;99.90
23471;DHT22;11908;50.806;4.424;2023-03-20T06:53:15;7.70;99.90
23471;DHT22;11908;50.806;4.424;2023-03-20T06:55:42;7.70;99.90
23471;DHT22;11908;50.806;4.424;2023-03-20T06:58:08;7.70;99.90
23471;DHT22;11908;50.806;4.424;2023-03-20T07:00:33;7.60;99.90
23471;DHT22;11908;50.806;4.424;2023-03-20T07:02:59;7.60;99.90
23471;DHT22;11908;50.806;4.424;2023-03-20T07:05:25;7.50;99.90
23471;DHT22;11908;50.806;4.424;2023-03-20T07:07:51;7.60;99.90
23471;DHT22;11908;50.806;4.424;2023-03-20T07:10:17;7.70;99.90
23471;DHT22;11908;50.806;4.424;2023-03-20T07:12:44;7.70;99.90
23471;DHT22;11908;50.806;4.424;2023-03-20T07:15:10;7.80;99.90
23471;DHT22;11908;50.806;4.424;2023-03-20T07:17:35;7.70;99.90
23471;DHT22;11908;50.806;4.424;2023-03-20T07:20:02;7.70;99.90
23471;DHT22;11908;50.806;4.424;2023-03-20T07:22:29;7.80;99.90
23471;DHT22;11908;50.806;4.424;2023-03-20T07:24:56;7.90;99.90
23471;DHT22;11908;50.806;4.424;2023-03-20T07:27:22;7.80;99.90
23471;DHT22;11908;50.806;4.424;2023-03-20T07:29:48;7.80;99.90
23471;DHT22;11908;50.806;4.424;2023-03-20T07:32:14;7.80;99.90
23471;DHT22;11908;50.806;4.424;2023-03-20T07:34:41;7.90;99.90
23471;DHT22;11908;50.806;4.424;2023-03-20T07:37:06;7.90;99.90
23471;DHT22;11908;50.806;4.424;2023-03-20T07:39:32;8.00;99.90
23471;DHT22;11908;50.806;4.424;2023-03-20T07:41:58;8.10;99.90
23471;DHT22;11908;50.806;4.424;2023-03-20T07:44:24;8.10;99.90
23471;DHT22;11908;50.806;4.424;2023-03-20T07:46:50;8.20;99.90
23471;DHT22;11908;50.806;4.424;2023-03-20T07:49:16;8.30;99.90
23471;DHT22;11908;50.806;4.424;2023-03-20T07:51:43;8.40;99.90
23471;DHT22;11908;50.806;4.424;2023-03-20T07:54:09;8.70;99.90
23471;DHT22;11908;50.806;4.424;2023-03-20T07:56:35;8.70;99.90
23471;DHT22;11908;50.806;4.424;2023-03-20T07:59:01;8.90;99.90
23471;DHT22;11908;50.806;4.424;2023-03-20T08:01:27;8.90;99.90
23471;DHT22;11908;50.806;4.424;2023-03-20T08:03:52;8.90;99.90
23471;DHT22;11908;50.806;4.424;2023-03-20T08:06:18;9.10;99.90
23471;DHT22;11908;50.806;4.424;2023-03-20T08:08:44;9.20;99.90
23471;DHT22;11908;50.806;4.424;2023-03-20T08:11:11;9.20;99.90
23471;DHT22;11908;50.806;4.424;2023-03-20T08:13:37;9.20;99.90
23471;DHT22;11908;50.806;4.424;2023-03-20T08:16:02;9.10;99.90
23471;DHT22;11908;50.806;4.424;2023-03-20T08:18:28;9.00;99.90
23471;DHT22;11908;50.806;4.424;2023-03-20T08:20:54;9.00;99.90
23471;DHT22;11908;50.806;4.424;2023-03-20T08:23:20;9.10;99.90
23471;DHT22;11908;50.806;4.424;2023-03-20T08:25:50;9.00;99.90
23471;DHT22;11908;50.806;4.424;2023-03-20T08:28:17;8.90;99.90
23471;DHT22;11908;50.806;4.424;2023-03-20T08:30:43;8.90;99.90
23471;DHT22;11908;50.806;4.424;2023-03-20T08:33:09;9.00;99.90
23471;DHT22;11908;50.806;4.424;2023-03-20T08:35:38;9.10;99.90
23471;DHT22;11908;50.806;4.424;2023-03-20T08:38:04;9.30;99.90
23471;DHT22;11908;50.806;4.424;2023-03-20T08:40:30;9.30;99.90
23471;DHT22;11908;50.806;4.424;2023-03-20T08:42:56;9.30;99.90
23471;DHT22;11908;50.806;4.424;2023-03-20T08:45:22;9.40;99.90
23471;DHT22;11908;50.806;4.424;2023-03-20T08:47:51;9.60;99.90
23471;DHT22;11908;50.806;4.424;2023-03-20T08:50:18;9.60;99.90
23471;DHT22;11908;50.806;4.424;2023-03-20T08:52:43;9.40;99.90
23471;DHT22;11908;50.806;4.424;2023-03-20T08:55:11;9.40;99.90
23471;DHT22;11908;50.806;4.424;2023-03-20T08:57:37;9.60;99.90
23471;DHT22;11908;50.806;4.424;2023-03-20T09:00:07;9.40;99.90
23471;DHT22;11908;50.806;4.424;2023-03-20T09:02:33;9.40;99.90
23471;DHT22;11908;50.806;4.424;2023-03-20T09:04:59;9.50;99.90
23471;DHT22;11908;50.806;4.424;2023-03-20T09:07:25;9.50;99.90
23471;DHT22;11908;50.806;4.424;2023-03-20T09:09:51;9.50;99.90
23471;DHT22;11908;50.806;4.424;2023-03-20T09:12:17;9.40;99.90
23471;DHT22;11908;50.806;4.424;2023-03-20T09:14:43;9.50;99.90
23471;DHT22;11908;50.806;4.424;2023-03-20T09:17:09;9.40;99.90
23471;DHT22;11908;50.806;4.424;2023-03-20T09:19:35;9.40;99.90
23471;DHT22;11908;50.806;4.424;2023-03-20T09:22:03;9.40;99.90
23471;DHT22;11908;50.806;4.424;2023-03-20T09:24:29;9.30;99.90
23471;DHT22;11908;50.806;4.424;2023-03-20T09:26:55;9.30;99.90
23471;DHT22;11908;50.806;4.424;2023-03-20T09:29:21;9.40;99.90
23471;DHT22;11908;50.806;4.424;2023-03-20T09:31:47;9.40;99.90
23471;DHT22;11908;50.806;4.424;2023-03-20T09:34:12;9.50;99.90
23471;DHT22;11908;50.806;4.424;2023-03-20T09:36:38;9.70;99.90
23471;DHT22;11908;50.806;4.424;2023-03-20T09:39:04;9.70;99.90
23471;DHT22;11908;50.806;4.424;2023-03-20T09:41:29;9.80;99.90
23471;DHT22;11908;50.806;4.424;2023-03-20T09:44:11;9.90;99.90
23471;DHT22;11908;50.806;4.424;2023-03-20T09:49:47;9.80;99.90
23471;DHT22;11908;50.806;4.424;2023-03-20T09:52:25;9.80;99.90
23471;DHT22;11908;50.806;4.424;2023-03-20T09:54:56;10.00;99.90
23471;DHT22;11908;50.806;4.424;2023-03-20T09:57:39;10.30;99.90
23471;DHT22;11908;50.806;4.424;2023-03-20T10:00:13;10.60;99.90
23471;DHT22;11908;50.806;4.424;2023-03-20T10:05:57;10.30;99.90
23471;DHT22;11908;50.806;4.424;2023-03-20T10:08:31;10.30;99.90
23471;DHT22;11908;50.806;4.424;2023-03-20T10:19:53;10.70;99.90
23471;DHT22;11908;50.806;4.424;2023-03-20T10:22:47;10.70;99.90
23471;DHT22;11908;50.806;4.424;2023-03-20T10:25:36;10.60;99.90
23471;DHT22;11908;50.806;4.424;2023-03-20T10:28:11;10.50;99.90
23471;DHT22;11908;50.806;4.424;2023-03-20T10:36:20;10.90;99.90
23471;DHT22;11908;50.806;4.424;2023-03-20T10:41:36;11.10;99.90
23471;DHT22;11908;50.806;4.424;2023-03-20T10:44:04;11.30;99.90
23471;DHT22;11908;50.806;4.424;2023-03-20T10:46:56;11.40;99.90
23471;DHT22;11908;50.806;4.424;2023-03-20T10:49:42;11.40;99.90
23471;DHT22;11908;50.806;4.424;2023-03-20T10:52:16;11.70;99.90
23471;DHT22;11908;50.806;4.424;2023-03-20T10:54:57;11.90;99.90
23471;DHT22;11908;50.806;4.424;2023-03-20T10:57:28;12.10;99.90
23471;DHT22;11908;50.806;4.424;2023-03-20T10:59:57;12.20;99.90
23471;DHT22;11908;50.806;4.424;2023-03-20T11:02:27;12.20;99.90
23471;DHT22;11908;50.806;4.424;2023-03-20T11:04:53;12.10;99.90
23471;DHT22;11908;50.806;4.424;2023-03-20T11:10:10;12.30;99.90
23471;DHT22;11908;50.806;4.424;2023-03-20T11:12:47;12.50;99.90
23471;DHT22;11908;50.806;4.424;2023-03-20T11:15:20;12.40;99.90
23471;DHT22;11908;50.806;4.424;2023-03-20T11:17:57;12.30;99.90
23471;DHT22;11908;50.806;4.424;2023-03-20T11:20:25;12.30;99.90
23471;DHT22;11908;50.806;4.424;2023-03-20T11:22:58;12.40;99.90
23471;DHT22;11908;50.806;4.424;2023-03-20T11:25:36;12.20;99.90
23471;DHT22;11908;50.806;4.424;2023-03-20T11:31:03;11.80;99.90
23471;DHT22;11908;50.806;4.424;2023-03-20T11:33:32;11.90;99.90
23471;DHT22;11908;50.806;4.424;2023-03-20T11:36:00;12.00;99.90
23471;DHT22;11908;50.806;4.424;2023-03-20T11:38:29;12.20;99.90
23471;DHT22;11908;50.806;4.424;2023-03-20T11:40:56;12.30;99.90
23471;DHT22;11908;50.806;4.424;2023-03-20T11:43:24;12.30;99.90
23471;DHT22;11908;50.806;4.424;2023-03-20T11:45:58;12.40;99.90
23471;DHT22;11908;50.806;4.424;2023-03-20T11:48:38;12.40;99.90
23471;DHT22;11908;50.806;4.424;2023-03-20T11:51:12;12.60;99.90
23471;DHT22;11908;50.806;4.424;2023-03-20T11:56:26;13.50;99.90
23471;DHT22;11908;50.806;4.424;2023-03-20T11:59:11;13.90;99.90
23471;DHT22;11908;50.806;4.424;2023-03-20T12:01:41;14.10;99.90
23471;DHT22;11908;50.806;4.424;2023-03-20T12:04:24;13.90;99.90
23471;DHT22;11908;50.806;4.424;2023-03-20T12:07:07;13.50;99.90
23471;DHT22;11908;50.806;4.424;2023-03-20T12:12:36;12.80;99.90
23471;DHT22;11908;50.806;4.424;2023-03-20T12:15:14;13.00;99.90
23471;DHT22;11908;50.806;4.424;2023-03-20T12:18:07;13.40;99.90
23471;DHT22;11908;50.806;4.424;2023-03-20T12:20:42;14.00;99.90
23471;DHT22;11908;50.806;4.424;2023-03-20T12:31:31;15.00;99.90
23471;DHT22;11908;50.806;4.424;2023-03-20T12:34:11;15.00;99.90
23471;DHT22;11908;50.806;4.424;2023-03-20T12:36:42;15.10;99.90
23471;DHT22;11908;50.806;4.424;2023-03-20T12:39:17;15.40;99.90
23471;DHT22;11908;50.806;4.424;2023-03-20T12:47:03;15.10;99.90
23471;DHT22;11908;50.806;4.424;2023-03-20T12:49:50;14.60;99.90
23471;DHT22;11908;50.806;4.424;2023-03-20T12:52:36;14.30;99.90
23471;DHT22;11908;50.806;4.424;2023-03-20T13:04:10;14.70;99.90
23471;DHT22;11908;50.806;4.424;2023-03-20T13:09:20;15.10;99.90
23471;DHT22;11908;50.806;4.424;2023-03-20T13:20:54;14.70;99.90
23471;DHT22;11908;50.806;4.424;2023-03-20T13:33:51;14.30;99.90
23471;DHT22;11908;50.806;4.424;2023-03-20T13:36:32;14.20;99.90
23471;DHT22;11908;50.806;4.424;2023-03-20T13:39:28;14.00;99.90
23471;DHT22;11908;50.806;4.424;2023-03-20T13:41:56;13.90;99.90
23471;DHT22;11908;50.806;4.424;2023-03-20T13:44:26;13.60;99.90
23471;DHT22;11908;50.806;4.424;2023-03-20T13:46:59;13.60;99.90
23471;DHT22;11908;50.806;4.424;2023-03-20T13:49:35;13.50;99.90
23471;DHT22;11908;50.806;4.424;2023-03-20T14:05:42;13.10;99.90
23471;DHT22;11908;50.806;4.424;2023-03-20T14:08:47;13.20;99.90
23471;DHT22;11908;50.806;4.424;2023-03-20T14:13:50;12.80;99.90
23471;DHT22;11908;50.806;4.424;2023-03-20T14:16:18;12.80;99.90
23471;DHT22;11908;50.806;4.424;2023-03-20T14:18:47;12.70;99.90
23471;DHT22;11908;50.806;4.424;2023-03-20T14:21:18;12.60;99.90
23471;DHT22;11908;50.806;4.424;2023-03-20T14:23:59;12.60;99.90
23471;DHT22;11908;50.806;4.424;2023-03-20T14:26:29;12.70;99.90
23471;DHT22;11908;50.806;4.424;2023-03-20T14:31:35;12.80;99.90
23471;DHT22;11908;50.806;4.424;2023-03-20T14:34:16;12.80;99.90
23471;DHT22;11908;50.806;4.424;2023-03-20T14:36:58;12.90;99.90
23471;DHT22;11908;50.806;4.424;2023-03-20T14:53:39;13.30;99.90
23471;DHT22;11908;50.806;4.424;2023-03-20T14:56:12;13.40;99.90
23471;DHT22;11908;50.806;4.424;2023-03-20T15:01:33;13.70;99.90
23471;DHT22;11908;50.806;4.424;2023-03-20T15:04:08;13.40;99.90
23471;DHT22;11908;50.806;4.424;2023-03-20T15:07:00;13.20;99.90
23471;DHT22;11908;50.806;4.424;2023-03-20T15:09:27;13.20;99.90
23471;DHT22;11908;50.806;4.424;2023-03-20T15:11:56;13.00;99.90
23471;DHT22;11908;50.806;4.424;2023-03-20T15:14:32;13.00;99.90
23471;DHT22;11908;50.806;4.424;2023-03-20T15:17:01;12.90;99.90
23471;DHT22;11908;50.806;4.424;2023-03-20T15:19:27;12.90;99.90
23471;DHT22;11908;50.806;4.424;2023-03-20T15:21:53;13.00;99.90
23471;DHT22;11908;50.806;4.424;2023-03-20T15:24:21;13.00;99.90
23471;DHT22;11908;50.806;4.424;2023-03-20T15:26:52;13.00;99.90
23471;DHT22;11908;50.806;4.424;2023-03-20T15:29:18;13.20;99.90
23471;DHT22;11908;50.806;4.424;2023-03-20T15:31:44;13.00;99.90
23471;DHT22;11908;50.806;4.424;2023-03-20T15:34:20;13.00;99.90
23471;DHT22;11908;50.806;4.424;2023-03-20T15:36:47;12.70;99.90
23471;DHT22;11908;50.806;4.424;2023-03-20T15:41:51;12.50;99.90
23471;DHT22;11908;50.806;4.424;2023-03-20T15:44:26;12.50;99.90
23471;DHT22;11908;50.806;4.424;2023-03-20T15:49:26;12.40;99.90
23471;DHT22;11908;50.806;4.424;2023-03-20T15:51:56;12.50;99.90
23471;DHT22;11908;50.806;4.424;2023-03-20T15:54:23;12.30;99.90
23471;DHT22;11908;50.806;4.424;2023-03-20T15:56:50;12.30;99.90
23471;DHT22;11908;50.806;4.424;2023-03-20T15:59:20;12.30;99.90
23471;DHT22;11908;50.806;4.424;2023-03-20T16:01:49;12.50;99.90
23471;DHT22;11908;50.806;4.424;2023-03-20T16:04:16;12.60;99.90
23471;DHT22;11908;50.806;4.424;2023-03-20T16:07:01;12.60;99.90
23471;DHT22;11908;50.806;4.424;2023-03-20T16:09:28;12.60;99.90
23471;DHT22;11908;50.806;4.424;2023-03-20T16:12:01;12.80;99.90
23471;DHT22;11908;50.806;4.424;2023-03-20T16:14:30;12.70;99.90
23471;DHT22;11908;50.806;4.424;2023-03-20T16:16:58;12.70;99.90
23471;DHT22;11908;50.806;4.424;2023-03-20T16:19:25;12.70;99.90
23471;DHT22;11908;50.806;4.424;2023-03-20T16:22:01;12.60;99.90
23471;DHT22;11908;50.806;4.424;2023-03-20T16:24:37;12.60;99.90
23471;DHT22;11908;50.806;4.424;2023-03-20T16:27:11;12.60;99.90
23471;DHT22;11908;50.806;4.424;2023-03-20T16:29:42;12.60;99.90
23471;DHT22;11908;50.806;4.424;2023-03-20T16:32:35;12.60;99.90
23471;DHT22;11908;50.806;4.424;2023-03-20T16:35:04;12.70;99.90
23471;DHT22;11908;50.806;4.424;2023-03-20T16:37:40;12.60;99.90
23471;DHT22;11908;50.806;4.424;2023-03-20T16:42:40;12.30;99.90
23471;DHT22;11908;50.806;4.424;2023-03-20T16:45:15;12.10;99.90
23471;DHT22;11908;50.806;4.424;2023-03-20T16:47:41;12.20;99.90
23471;DHT22;11908;50.806;4.424;2023-03-20T16:50:34;12.20;99.90
23471;DHT22;11908;50.806;4.424;2023-03-20T16:53:00;12.30;99.90
23471;DHT22;11908;50.806;4.424;2023-03-20T16:55:31;12.30;99.90
23471;DHT22;11908;50.806;4.424;2023-03-20T16:58:04;12.30;99.90
23471;DHT22;11908;50.806;4.424;2023-03-20T17:00:40;12.30;99.90
23471;DHT22;11908;50.806;4.424;2023-03-20T17:03:18;12.40;99.90
23471;DHT22;11908;50.806;4.424;2023-03-20T17:05:58;12.40;99.90
23471;DHT22;11908;50.806;4.424;2023-03-20T17:08:39;12.30;99.90
23471;DHT22;11908;50.806;4.424;2023-03-20T17:11:15;12.40;99.90
23471;DHT22;11908;50.806;4.424;2023-03-20T17:13:41;12.40;99.90
23471;DHT22;11908;50.806;4.424;2023-03-20T17:16:17;12.20;99.90
23471;DHT22;11908;50.806;4.424;2023-03-20T17:18:45;12.20;99.90
23471;DHT22;11908;50.806;4.424;2023-03-20T17:21:11;12.10;99.90
23471;DHT22;11908;50.806;4.424;2023-03-20T17:23:37;12.20;99.90
23471;DHT22;11908;50.806;4.424;2023-03-20T17:26:03;12.10;99.90
23471;DHT22;11908;50.806;4.424;2023-03-20T17:28:35;12.20;99.90
23471;DHT22;11908;50.806;4.424;2023-03-20T17:31:01;12.10;99.90
23471;DHT22;11908;50.806;4.424;2023-03-20T17:33:30;12.00;99.90
23471;DHT22;11908;50.806;4.424;2023-03-20T17:35:58;11.90;99.90
23471;DHT22;11908;50.806;4.424;2023-03-20T17:38:24;12.00;99.90
23471;DHT22;11908;50.806;4.424;2023-03-20T17:40:50;11.90;99.90
23471;DHT22;11908;50.806;4.424;2023-03-20T17:43:17;11.90;99.90
23471;DHT22;11908;50.806;4.424;2023-03-20T17:45:44;11.90;99.90
23471;DHT22;11908;50.806;4.424;2023-03-20T17:48:18;11.80;99.90
23471;DHT22;11908;50.806;4.424;2023-03-20T17:50:46;11.80;99.90
23471;DHT22;11908;50.806;4.424;2023-03-20T17:53:24;11.80;99.90
23471;DHT22;11908;50.806;4.424;2023-03-20T17:55:51;11.80;99.90
23471;DHT22;11908;50.806;4.424;2023-03-20T17:58:19;11.70;99.90
23471;DHT22;11908;50.806;4.424;2023-03-20T18:00:50;11.80;99.90
23471;DHT22;11908;50.806;4.424;2023-03-20T18:03:16;11.80;99.90
23471;DHT22;11908;50.806;4.424;2023-03-20T18:05:49;11.90;99.90
23471;DHT22;11908;50.806;4.424;2023-03-20T18:08:18;11.90;99.90
23471;DHT22;11908;50.806;4.424;2023-03-20T18:10:51;11.80;99.90
23471;DHT22;11908;50.806;4.424;2023-03-20T18:13:22;11.80;99.90
23471;DHT22;11908;50.806;4.424;2023-03-20T18:15:53;11.70;99.90
23471;DHT22;11908;50.806;4.424;2023-03-20T18:18:20;11.70;99.90
23471;DHT22;11908;50.806;4.424;2023-03-20T18:20:46;11.80;99.90
23471;DHT22;11908;50.806;4.424;2023-03-20T18:23:13;11.70;99.90
23471;DHT22;11908;50.806;4.424;2023-03-20T18:25:39;11.60;99.90
23471;DHT22;11908;50.806;4.424;2023-03-20T18:28:09;11.70;99.90
23471;DHT22;11908;50.806;4.424;2023-03-20T18:30:38;11.70;99.90
23471;DHT22;11908;50.806;4.424;2023-03-20T18:33:04;11.60;99.90
23471;DHT22;11908;50.806;4.424;2023-03-20T18:35:31;11.60;99.90
23471;DHT22;11908;50.806;4.424;2023-03-20T18:37:57;11.50;99.90
23471;DHT22;11908;50.806;4.424;2023-03-20T18:40:25;11.40;99.90